Terminal Aerodrome Forecast
Issued by NWS Bismarck, ND

Home | Current Version | Previous Version | Text Only | Print | Product List | Glossary Off
Versions: 1 2 3 4 5 6 7 8 9 10 11 12 13 14 15 16 17 18 19 20 21 22 23

837
FTUS43 KBIS 201730
TAFISN
TAF
KISN 201730Z 2018/2118 24011KT P6SM FEW070
     FM210000 24007KT P6SM SCT110
     FM210200 19004KT P6SM BKN110
     FM211100 23006KT P6SM SCT150=

USA.gov is the U.S. government's official web portal to all federal, state and local government web resources and services.